Time,TemperatureF,DewpointF,PressureIn,WindDirection,WindDirectionDegrees,WindSpeedMPH,WindSpeedGustMPH,Humidity,HourlyPrecipIn,Conditions,Clouds,dailyrainin,SoftwareType,DateUTC
2013-06-10 00:00:00,63.9,59.3,30.42,NW,319,0.0,5.4,85,1.00,,SKC,0.00,VWS V14.01,2013-06-10 04:00:00,
2013-06-10 00:20:00,63.0,58.4,30.42,NNW,333,0.0,8.3,85,1.00,,SKC,0.00,VWS V14.01,2013-06-10 04:20:00,
2013-06-10 00:40:00,62.6,58.4,30.42,NW,312,0.0,5.8,86,0.00,,SKC,0.00,VWS V14.01,2013-06-10 04:40:00,
2013-06-10 01:00:00,62.6,58.4,30.39,North,353,0.0,3.6,86,0.00,,SKC,0.00,VWS V14.01,2013-06-10 05:00:00,
2013-06-10 01:20:00,63.0,59.0,30.39,West,266,0.0,7.6,87,0.00,,SKC,0.00,VWS V14.01,2013-06-10 05:20:00,
2013-06-10 01:40:00,63.3,59.7,30.39,WNW,302,0.0,7.2,88,0.00,,SKC,0.00,VWS V14.01,2013-06-10 05:40:00,
2013-06-10 02:00:00,63.1,59.2,30.39,ENE,76,3.6,6.3,87,0.00,,SKC,0.00,VWS V14.01,2013-06-10 06:00:00,
2013-06-10 02:20:00,63.3,59.7,30.36,ESE,106,0.0,6.3,88,0.00,,SKC,0.00,VWS V14.01,2013-06-10 06:20:00,
2013-06-10 02:40:00,63.3,59.7,30.36,East,101,3.6,5.8,88,0.00,,SKC,0.00,VWS V14.01,2013-06-10 06:40:00,
2013-06-10 03:00:00,63.5,60.2,30.36,East,93,0.0,6.7,89,0.00,,SKC,0.00,VWS V14.01,2013-06-10 07:00:00,
2013-06-10 03:20:00,63.7,60.7,30.33,East,100,4.0,5.4,90,0.00,,SKC,0.00,VWS V14.01,2013-06-10 07:20:00,
2013-06-10 03:40:00,63.9,60.9,30.33,ENE,62,0.0,7.6,90,0.00,,SKC,0.00,VWS V14.01,2013-06-10 07:40:00,
2013-06-10 04:00:00,64.4,61.7,30.33,ENE,78,4.0,7.6,91,0.00,,SKC,0.00,VWS V14.01,2013-06-10 08:00:00,
2013-06-10 04:20:00,64.6,61.6,30.33,East,89,0.0,4.9,90,0.00,,SKC,0.00,VWS V14.01,2013-06-10 08:20:00,
2013-06-10 04:40:00,64.8,62.1,30.33,WNW,282,2.7,6.7,91,0.00,,SKC,0.00,VWS V14.01,2013-06-10 08:40:00,
2013-06-10 05:00:00,64.9,62.2,30.33,NW,313,5.4,8.7,91,0.00,,SKC,0.00,VWS V14.01,2013-06-10 09:00:00,
2013-06-10 05:20:00,64.8,62.1,30.33,NW,316,8.1,10.1,91,0.00,,SKC,0.00,VWS V14.01,2013-06-10 09:20:00,
2013-06-10 05:40:00,64.6,62.2,30.30,WSW,246,0.0,12.3,92,0.00,,SKC,0.00,VWS V14.01,2013-06-10 09:40:00,
2013-06-10 06:00:00,64.8,62.4,30.33,NNW,328,0.0,6.3,92,0.00,,SKC,0.00,VWS V14.01,2013-06-10 10:00:00,
2013-06-10 06:20:00,64.8,62.4,30.33,NE,42,0.0,6.3,92,0.00,,SKC,0.00,VWS V14.01,2013-06-10 10:20:00,
2013-06-10 06:40:00,64.8,62.4,30.33,ENE,72,3.1,8.3,92,0.00,,SKC,0.00,VWS V14.01,2013-06-10 10:40:00,
2013-06-10 07:00:00,64.8,62.7,30.33,WNW,297,5.4,8.3,93,0.00,,SKC,0.00,VWS V14.01,2013-06-10 11:00:00,
2013-06-10 07:20:00,64.6,62.5,30.33,East,89,5.8,11.0,93,0.00,,SKC,0.00,VWS V14.01,2013-06-10 11:20:00,
2013-06-10 07:40:00,64.4,62.3,30.33,NW,309,8.1,8.7,93,0.00,,SKC,0.00,VWS V14.01,2013-06-10 11:40:00,
2013-06-10 08:00:00,64.6,62.8,30.30,NW,309,0.0,10.5,94,0.00,,SKC,0.00,VWS V14.01,2013-06-10 12:00:00,
2013-06-10 08:20:00,64.8,63.0,30.33,West,265,0.0,11.4,94,0.00,,SKC,0.00,VWS V14.01,2013-06-10 12:20:00,
2013-06-10 08:40:00,64.8,63.0,30.33,NNW,341,4.9,6.3,94,0.00,,SKC,0.00,VWS V14.01,2013-06-10 12:40:00,
2013-06-10 09:00:00,64.9,63.2,30.33,WNW,301,6.3,8.3,94,0.00,,SKC,0.00,VWS V14.01,2013-06-10 13:00:00,
2013-06-10 09:20:00,64.9,63.2,30.33,NNW,334,0.0,6.7,94,0.00,,SKC,0.00,VWS V14.01,2013-06-10 13:20:00,
2013-06-10 09:40:00,65.1,63.3,30.33,SSW,208,5.8,8.3,94,0.00,,SKC,0.00,VWS V14.01,2013-06-10 13:40:00,
2013-06-10 10:00:00,65.1,63.3,30.33,NNW,330,0.0,7.2,94,0.00,,SKC,0.00,VWS V14.01,2013-06-10 14:00:00,
2013-06-10 10:20:00,65.5,64.0,30.33,NNW,336,0.0,5.8,95,0.00,,SKC,0.00,VWS V14.01,2013-06-10 14:20:00,
2013-06-10 10:40:00,67.5,66.3,30.30,North,4,5.8,5.8,96,0.00,,SKC,0.00,VWS V14.01,2013-06-10 14:40:00,
2013-06-10 11:00:00,68.2,66.4,30.30,NE,41,3.1,6.3,94,0.00,,SKC,0.00,VWS V14.01,2013-06-10 15:00:00,
2013-06-10 11:20:00,68.9,67.1,30.30,NW,315,0.0,8.7,94,0.00,,SKC,0.00,VWS V14.01,2013-06-10 15:20:00,
2013-06-10 11:40:00,70.3,66.6,30.30,SW,221,2.7,6.3,88,0.00,,SKC,0.00,VWS V14.01,2013-06-10 15:40:00,
2013-06-10 12:00:00,70.7,63.1,30.30,West,267,3.1,7.6,77,0.00,,SKC,0.00,VWS V14.01,2013-06-10 16:00:00,
2013-06-10 12:20:00,70.9,61.4,30.30,East,79,3.1,6.3,72,0.00,,SKC,0.00,VWS V14.01,2013-06-10 16:20:00,
2013-06-10 12:40:00,71.8,60.7,30.30,East,99,4.0,11.0,68,0.00,,SKC,0.00,VWS V14.01,2013-06-10 16:40:00,
2013-06-10 13:00:00,71.4,58.2,30.30,NW,312,0.0,8.1,63,0.00,,SKC,0.00,VWS V14.01,2013-06-10 17:00:00,
2013-06-10 13:20:00,70.5,55.5,30.27,NNW,330,0.0,7.6,59,0.00,,SKC,0.00,VWS V14.01,2013-06-10 17:20:00,
2013-06-10 13:40:00,71.1,56.5,30.30,WSW,237,0.0,4.9,60,0.00,,SKC,0.00,VWS V14.01,2013-06-10 17:40:00,
2013-06-10 14:00:00,72.7,54.6,30.27,East,93,0.0,7.6,53,0.00,,SKC,0.00,VWS V14.01,2013-06-10 18:00:00,
2013-06-10 14:20:00,73.2,50.6,30.27,East,97,0.0,7.2,45,0.00,,SKC,0.00,VWS V14.01,2013-06-10 18:20:00,
2013-06-10 14:40:00,72.3,48.0,30.27,North,353,4.0,10.1,42,0.00,,SKC,0.00,VWS V14.01,2013-06-10 18:40:00,
2013-06-10 15:00:00,68.0,47.6,30.27,West,275,0.0,8.1,48,0.00,,SKC,0.00,VWS V14.01,2013-06-10 19:00:00,
2013-06-10 15:20:00,66.6,48.4,30.27,ESE,108,0.0,5.4,52,0.00,,SKC,0.00,VWS V14.01,2013-06-10 19:20:00,
2013-06-10 15:40:00,66.9,50.7,30.24,ESE,108,0.0,0.0,56,0.00,,SKC,0.00,VWS V14.01,2013-06-10 19:40:00,
2013-06-10 16:00:00,68.9,54.0,30.24,NW,326,0.0,0.0,59,0.00,,SKC,0.00,VWS V14.01,2013-06-10 20:00:00,
2013-06-10 16:20:00,68.9,50.0,27.17,NNW,336,0.0,2.2,51,0.00,,SKC,0.00,VWS V14.01,2013-06-10 20:20:00,
2013-06-10 16:40:00,70.3,52.4,29.17,WNW,302,8.1,8.1,53,0.00,,SKC,0.00,VWS V14.01,2013-06-10 20:40:00,
2013-06-10 17:00:00,70.3,48.0,29.17,West,273,0.0,0.0,45,0.00,,SKC,0.24,VWS V14.01,2013-06-10 21:00:00,
2013-06-10 17:20:00,70.2,46.0,29.17,NW,325,2.7,4.0,42,1.24,,SKC,0.24,VWS V14.01,2013-06-10 21:20:00,
2013-06-10 17:40:00,70.2,43.4,29.17,NW,313,3.1,10.1,38,35.29,,SKC,0.24,VWS V14.01,2013-06-10 21:40:00,
2013-06-10 18:00:00,69.4,34.0,29.17,WNW,286,6.3,10.5,27,35.29,,SKC,0.24,VWS V14.01,2013-06-10 22:00:00,
2013-06-10 18:20:00,68.4,31.2,29.17,WNW,288,2.2,10.5,25,35.05,,SKC,0.24,VWS V14.01,2013-06-10 22:20:00,
2013-06-10 18:40:00,65.3,34.7,29.17,WNW,295,3.1,8.1,32,0.00,,SKC,0.24,VWS V14.01,2013-06-10 22:40:00,
2013-06-10 19:00:00,64.6,35.6,29.17,WNW,295,0.0,4.0,34,0.00,,SKC,0.24,VWS V14.01,2013-06-10 23:00:00,
2013-06-10 19:20:00,64.8,37.2,29.20,WNW,295,0.0,0.0,36,0.00,,SKC,0.24,VWS V14.01,2013-06-10 23:20:00,
2013-06-10 19:40:00,64.8,37.9,29.17,WNW,295,0.0,0.0,37,0.00,,SKC,0.24,VWS V14.01,2013-06-10 23:40:00,
2013-06-10 20:00:00,64.2,39.4,29.20,WNW,295,0.0,0.0,40,0.00,,SKC,0.24,VWS V14.01,2013-06-11 00:00:00,
2013-06-10 20:20:00,63.1,40.3,29.20,WNW,295,0.0,0.0,43,0.00,,SKC,0.24,VWS V14.01,2013-06-11 00:20:00,
2013-06-10 20:40:00,62.4,40.8,29.20,WNW,295,0.0,0.0,45,0.00,,SKC,0.24,VWS V14.01,2013-06-11 00:40:00,
2013-06-10 21:00:00,61.7,41.3,29.20,WNW,295,0.0,0.0,47,0.00,,SKC,0.24,VWS V14.01,2013-06-11 01:00:00,
2013-06-10 21:20:00,60.8,41.0,29.20,WNW,295,0.0,0.0,48,0.00,,SKC,0.24,VWS V14.01,2013-06-11 01:20:00,
2013-06-10 21:40:00,60.4,42.8,29.20,WNW,295,0.0,0.0,52,0.00,,SKC,0.24,VWS V14.01,2013-06-11 01:40:00,
2013-06-10 22:00:00,60.4,44.7,29.23,WNW,295,0.0,0.0,56,0.00,,SKC,0.24,VWS V14.01,2013-06-11 02:00:00,
2013-06-10 22:20:00,60.8,46.4,29.23,WNW,295,0.0,0.0,59,0.00,,SKC,0.24,VWS V14.01,2013-06-11 02:20:00,
2013-06-10 22:40:00,60.1,46.6,29.23,WNW,295,0.0,0.0,61,0.00,,SKC,0.24,VWS V14.01,2013-06-11 02:40:00,
2013-06-10 23:00:00,59.9,48.1,29.23,WNW,295,0.0,0.0,65,0.00,,SKC,0.24,VWS V14.01,2013-06-11 03:00:00,
2013-06-10 23:20:00,59.4,48.4,29.23,WNW,295,0.0,0.0,67,0.00,,SKC,0.24,VWS V14.01,2013-06-11 03:20:00,
2013-06-10 23:40:00,59.9,50.1,29.23,WNW,295,0.0,0.0,70,0.00,,SKC,0.24,VWS V14.01,2013-06-11 03:40:00,